Time;durP1;ratioP1;P1;durP2;ratioP2;P2;SDS_P1;SDS_P2;PMS_P1;PMS_P2;Temp;Humidity;BMP_temperature;BMP_pressure;BME280_temperature;BME280_humidity;BME280_pressure;Samples;Min_cycle;Max_cycle;Signal;HPM_P1;HPM_P2
2020/12/29 00:00:15;;;;;;;78.03;28.67;;;;;;;0.65;93.21;99034.66;3470877;28;20049;-61
2020/12/29 00:01:56;;;;;;;83.60;30.30;;;;;;;0.66;93.35;99036.38;3469099;28;20091;-61
2020/12/29 00:03:38;;;;;;;94.85;31.35;;;;;;;0.66;93.33;99041.47;3468421;28;20111;-61
2020/12/29 00:05:19;;;;;;;88.75;30.65;;;;;;;0.67;93.31;99039.81;3468461;28;20459;-54
2020/12/29 00:07:00;;;;;;;85.15;29.60;;;;;;;0.67;93.41;99048.34;3475117;28;20049;-51
2020/12/29 00:08:43;;;;;;;83.18;31.05;;;;;;;0.66;93.42;99038.94;3479627;28;20072;-61
2020/12/29 00:10:24;;;;;;;89.78;30.60;;;;;;;0.65;93.44;99034.66;3468861;28;20045;-61
2020/12/29 00:12:05;;;;;;;87.97;30.02;;;;;;;0.67;93.38;99044.94;3479678;28;20052;-61
2020/12/29 00:13:47;;;;;;;97.93;32.90;;;;;;;0.67;93.20;99037.28;3477662;28;20053;-62
2020/12/29 00:15:29;;;;;;;92.07;32.53;;;;;;;0.67;93.38;99039.81;3468661;28;20572;-61
2020/12/29 00:17:11;;;;;;;87.07;31.35;;;;;;;0.66;93.61;99036.38;3481484;28;20080;-61
2020/12/29 00:18:52;;;;;;;78.47;27.67;;;;;;;0.65;93.31;99021.88;3480738;28;20509;-61
2020/12/29 00:20:34;;;;;;;80.97;29.48;;;;;;;0.66;93.61;99017.66;3480646;28;20052;-61
2020/12/29 00:22:15;;;;;;;85.07;27.58;;;;;;;0.67;93.25;99037.28;3468364;28;20079;-61
2020/12/29 00:23:57;;;;;;;82.20;28.00;;;;;;;0.68;93.63;99044.09;3469065;28;20064;-62
2020/12/29 00:25:39;;;;;;;82.03;27.05;;;;;;;0.68;93.49;99044.09;3469225;28;20056;-62
2020/12/29 00:27:20;;;;;;;75.15;27.02;;;;;;;0.69;93.50;99044.16;3468644;28;20057;-50
2020/12/29 00:29:01;;;;;;;76.20;26.60;;;;;;;0.70;93.51;99039.94;3478600;28;20037;-61
2020/12/29 00:30:42;;;;;;;70.78;25.35;;;;;;;0.70;93.28;99045.03;3477114;28;20049;-62
2020/12/29 00:32:24;;;;;;;96.88;27.80;;;;;;;0.70;93.50;99040.81;3468516;28;20046;-61
2020/12/29 00:34:05;;;;;;;80.30;27.83;;;;;;;0.71;93.18;99046.78;3467398;28;20092;-61
2020/12/29 00:35:47;;;;;;;80.15;29.40;;;;;;;0.71;93.60;99057.00;3468280;28;20069;-62
2020/12/29 00:37:28;;;;;;;82.70;28.17;;;;;;;0.71;93.45;99059.56;3467104;28;20054;-61
2020/12/29 00:39:10;;;;;;;91.28;31.73;;;;;;;0.71;93.17;99037.44;3469364;28;20050;-61
2020/12/29 00:40:52;;;;;;;87.82;29.33;;;;;;;0.71;93.54;99050.22;3469253;28;20081;-61
2020/12/29 00:42:33;;;;;;;83.28;27.88;;;;;;;0.73;93.63;99050.28;3472472;28;20098;-62
2020/12/29 00:44:15;;;;;;;86.65;28.92;;;;;;;0.73;93.41;99057.94;3468402;28;20083;-61
2020/12/29 00:45:56;;;;;;;80.78;28.10;;;;;;;0.72;93.34;99067.28;3467582;28;20045;-61
2020/12/29 00:47:38;;;;;;;87.43;29.50;;;;;;;0.73;93.28;99073.25;3467687;28;20052;-61
2020/12/29 00:49:19;;;;;;;90.95;27.85;;;;;;;0.73;93.32;99071.56;3468286;28;20510;-61
2020/12/29 00:51:02;;;;;;;82.55;28.77;;;;;;;0.72;93.72;99071.50;3467627;28;20464;-61
2020/12/29 00:52:44;;;;;;;83.40;29.52;;;;;;;0.72;93.42;99067.28;3470761;28;20053;-61
2020/12/29 00:54:26;;;;;;;86.70;30.38;;;;;;;0.73;93.48;99052.81;3481881;28;20510;-61
2020/12/29 00:56:08;;;;;;;87.55;27.90;;;;;;;0.73;93.79;99047.72;3467949;28;20049;-61
2020/12/29 00:57:50;;;;;;;89.53;28.83;;;;;;;0.74;93.79;99039.28;3469560;28;20049;-61
2020/12/29 00:59:31;;;;;;;86.20;28.90;;;;;;;0.73;93.57;99037.50;3469146;28;20497;-61
2020/12/29 01:01:12;;;;;;;92.88;30.02;;;;;;;0.73;93.41;99030.72;3467813;28;20053;-50
2020/12/29 01:02:53;;;;;;;78.90;28.95;;;;;;;0.71;93.57;99027.22;3475482;28;20056;-51
2020/12/29 01:04:35;;;;;;;92.18;28.48;;;;;;;0.73;93.70;99042.63;3480103;28;20418;-61
2020/12/29 01:06:24;;;;;;;84.50;29.42;;;;;;;0.73;93.80;99038.38;3493586;28;20044;-50
2020/12/29 01:08:05;;;;;;;78.68;27.13;;;;;;;0.73;93.47;99027.31;3482171;28;20088;-50
2020/12/29 01:09:47;;;;;;;89.30;26.98;;;;;;;0.73;93.88;99019.66;3475190;28;20510;-51
2020/12/29 01:11:29;;;;;;;84.18;27.90;;;;;;;0.73;93.84;99030.72;3468344;28;20054;-61
2020/12/29 01:13:11;;;;;;;84.03;28.50;;;;;;;0.73;93.58;99038.38;3468714;28;20053;-60
2020/12/29 01:14:53;;;;;;;85.00;27.95;;;;;;;0.75;93.88;99025.69;3467495;28;20073;-61
2020/12/29 01:16:34;;;;;;;83.70;28.17;;;;;;;0.75;93.87;99023.13;3467543;28;20045;-48
2020/12/29 01:18:15;;;;;;;82.45;27.55;;;;;;;0.75;93.56;99031.69;3480605;28;20075;-49
2020/12/29 01:19:57;;;;;;;74.22;26.55;;;;;;;0.75;93.64;99031.69;3481361;28;20092;-61
2020/12/29 01:21:38;;;;;;;73.38;26.90;;;;;;;0.75;93.81;99033.34;3479175;28;20049;-61
2020/12/29 01:23:20;;;;;;;84.35;27.08;;;;;;;0.75;93.79;99023.13;3467984;28;20049;-61
2020/12/29 01:25:02;;;;;;;66.40;25.42;;;;;;;0.75;93.89;99035.88;3475742;28;20083;-62
2020/12/29 01:26:43;;;;;;;77.78;27.67;;;;;;;0.75;93.63;99034.22;3479664;28;20053;-50
2020/12/29 01:28:25;;;;;;;78.90;26.98;;;;;;;0.76;93.51;99022.34;3481616;28;20049;-62
2020/12/29 01:30:06;;;;;;;95.82;28.80;;;;;;;0.76;93.82;99035.97;3473553;28;20054;-51
2020/12/29 01:31:47;;;;;;;77.57;26.23;;;;;;;0.76;93.59;99030.84;3472383;28;20502;-62
2020/12/29 01:33:29;;;;;;;86.60;29.02;;;;;;;0.76;93.88;99019.78;3470107;28;20173;-50
2020/12/29 01:35:10;;;;;;;87.50;29.38;;;;;;;0.75;93.81;99012.91;3470083;28;20057;-51
2020/12/29 01:36:52;;;;;;;78.53;26.13;;;;;;;0.75;93.82;99023.13;3469444;28;20049;-51
2020/12/29 01:38:34;;;;;;;80.60;27.38;;;;;;;0.74;93.63;99014.59;3469734;28;20057;-51
2020/12/29 01:40:16;;;;;;;74.97;28.08;;;;;;;0.74;93.90;98999.28;3483929;28;20049;-50
2020/12/29 01:41:58;;;;;;;74.95;27.45;;;;;;;0.75;93.58;98992.50;3473375;28;20058;-50
2020/12/29 01:43:40;;;;;;;77.90;26.70;;;;;;;0.76;93.86;98991.69;3480781;28;20045;-61
2020/12/29 01:45:22;;;;;;;75.13;25.08;;;;;;;0.75;93.83;98995.94;3484067;28;20417;-61
2020/12/29 01:47:03;;;;;;;79.60;26.50;;;;;;;0.76;93.63;98986.59;3472979;28;20037;-61
2020/12/29 01:48:45;;;;;;;77.97;28.10;;;;;;;0.76;93.90;98979.78;3474602;28;20045;-61
2020/12/29 01:50:27;;;;;;;88.95;27.60;;;;;;;0.76;93.90;98971.28;3483197;28;20083;-61
2020/12/29 01:52:08;;;;;;;73.35;26.73;;;;;;;0.77;93.76;98973.00;3470970;28;20431;-61
2020/12/29 01:53:50;;;;;;;75.35;27.20;;;;;;;0.77;93.87;98979.00;3471158;28;20426;-61
2020/12/29 01:55:33;;;;;;;86.85;28.50;;;;;;;0.77;93.56;98980.66;3471016;28;20053;-61
2020/12/29 01:57:14;;;;;;;78.13;26.30;;;;;;;0.77;93.95;98975.56;3469712;28;20305;-61
2020/12/29 01:58:56;;;;;;;80.93;26.58;;;;;;;0.77;93.78;98971.34;3469346;28;20046;-49
2020/12/29 02:00:37;;;;;;;79.00;26.42;;;;;;;0.78;93.76;98969.66;3470482;28;20072;-50
2020/12/29 02:02:19;;;;;;;69.78;25.05;;;;;;;0.78;93.77;98962.84;3483959;28;20072;-50
2020/12/29 02:04:00;;;;;;;68.43;25.30;;;;;;;0.78;93.60;98959.44;3473076;28;20564;-50
2020/12/29 02:05:45;;;;;;;80.50;26.70;;;;;;;0.78;93.61;98957.75;3469370;28;20119;-50
2020/12/29 02:07:27;;;;;;;80.63;26.92;;;;;;;0.78;93.52;98942.44;3470460;28;20061;-52
2020/12/29 02:09:09;;;;;;;75.60;25.42;;;;;;;0.79;93.81;98943.34;3480257;28;20484;-61
2020/12/29 02:10:53;;;;;;;71.57;26.10;;;;;;;0.78;93.86;98952.66;3470657;28;20056;-61
2020/12/29 02:12:36;;;;;;;;;;;;;;;0.78;93.50;98955.19;3470066;28;20045;-51
2020/12/29 02:14:17;;;;;;;74.70;25.17;;;;;;;0.77;93.70;98945.81;3483217;28;19928;-61
2020/12/29 02:15:58;;;;;;;70.05;24.40;;;;;;;0.79;93.66;98954.41;3474583;28;20560;-61
2020/12/29 02:17:40;;;;;;;71.53;25.10;;;;;;;0.78;93.46;98939.88;3471834;28;20041;-60
2020/12/29 02:19:21;;;;;;;79.43;27.15;;;;;;;0.79;93.46;98958.66;3483692;28;20045;-51
2020/12/29 02:21:03;;;;;;;69.38;24.65;;;;;;;0.78;93.43;98959.44;3472985;28;20053;-61
2020/12/29 02:22:45;;;;;;;70.47;23.67;;;;;;;0.77;93.72;98962.78;3474703;28;20444;-61
2020/12/29 02:24:26;;;;;;;70.53;24.70;;;;;;;0.78;93.44;98970.53;3483611;28;20045;-61
2020/12/29 02:26:08;;;;;;;69.97;26.10;;;;;;;0.79;93.44;98969.72;3480345;28;20060;-61
2020/12/29 02:27:51;;;;;;;63.80;23.45;;;;;;;0.78;93.91;98983.28;3481958;28;20136;-50
2020/12/29 02:29:33;;;;;;;69.05;24.98;;;;;;;0.79;93.73;98972.28;3483300;28;20083;-50
2020/12/29 02:31:14;;;;;;;68.18;24.08;;;;;;;0.80;93.49;98973.13;3481859;28;20488;-51
2020/12/29 02:32:55;;;;;;;64.80;23.70;;;;;;;0.79;93.58;98972.28;3480260;28;20053;-51
2020/12/29 02:34:37;;;;;;;67.78;26.90;;;;;;;0.79;93.64;98969.72;3480638;28;20275;-51
2020/12/29 02:36:18;;;;;;;72.05;26.13;;;;;;;0.80;93.58;98971.44;3483552;28;20069;-51
2020/12/29 02:38:00;;;;;;;78.80;27.63;;;;;;;0.81;93.97;98967.25;3471865;28;20053;-51
2020/12/29 02:39:44;;;;;;;75.82;26.80;;;;;;;0.82;93.65;98966.41;3472418;28;20114;-50
2020/12/29 02:41:25;;;;;;;65.45;22.90;;;;;;;0.83;93.47;98967.31;3482621;28;20053;-61
2020/12/29 02:43:06;;;;;;;69.80;24.55;;;;;;;0.82;93.89;98971.50;3468131;28;20510;-60
2020/12/29 02:44:47;;;;;;;63.47;23.85;;;;;;;0.83;93.58;98972.41;3468244;28;20335;-61
2020/12/29 02:46:29;;;;;;;62.75;23.45;;;;;;;0.82;93.83;98979.19;3469133;28;20073;-61
2020/12/29 02:48:10;;;;;;;57.97;23.60;;;;;;;0.82;93.70;98961.31;3469749;28;20064;-62
2020/12/29 02:49:52;;;;;;;57.65;22.95;;;;;;;0.83;93.80;98949.44;3475107;28;20048;-61
2020/12/29 02:51:33;;;;;;;60.35;23.40;;;;;;;0.83;93.82;98947.75;3482854;28;20075;-50
2020/12/29 02:53:15;;;;;;;54.80;21.17;;;;;;;0.84;93.48;98946.06;3481874;28;20049;-51
2020/12/29 02:54:56;;;;;;;62.38;22.83;;;;;;;0.83;93.57;98937.53;3473490;28;20134;-50
2020/12/29 02:56:38;;;;;;;61.15;24.08;;;;;;;0.84;93.79;98946.91;3468123;28;20099;-52
2020/12/29 02:58:20;;;;;;;62.47;23.65;;;;;;;0.85;93.79;98935.03;3469042;28;20115;-50
2020/12/29 03:00:01;;;;;;;62.45;22.25;;;;;;;0.83;93.49;98939.22;3477068;28;20075;-50
2020/12/29 03:01:42;;;;;;;68.40;24.50;;;;;;;0.84;93.87;98939.25;3479580;28;20049;-50
2020/12/29 03:03:24;;;;;;;65.90;24.35;;;;;;;0.83;93.86;98926.47;3483073;28;20060;-61
2020/12/29 03:05:05;;;;;;;67.13;23.48;;;;;;;0.82;93.54;98935.78;3468614;28;20053;-61
2020/12/29 03:06:47;;;;;;;73.40;24.88;;;;;;;0.83;93.92;98945.19;3476807;28;20040;-61
2020/12/29 03:08:31;;;;;;;63.47;23.98;;;;;;;0.82;93.70;98943.44;3482189;28;20064;-51
2020/12/29 03:10:12;;;;;;;58.13;22.30;;;;;;;0.83;93.80;98939.22;3481811;28;20048;-50
2020/12/29 03:11:54;;;;;;;55.47;22.40;;;;;;;0.83;93.76;98945.19;3474349;28;20095;-50
2020/12/29 03:13:35;;;;;;;61.45;23.42;;;;;;;0.83;93.90;98942.63;3471109;28;20076;-49
2020/12/29 03:15:17;;;;;;;56.58;21.48;;;;;;;0.84;93.82;98933.28;3469434;28;20054;-48
2020/12/29 03:16:58;;;;;;;51.35;21.50;;;;;;;0.86;93.62;98940.22;3478448;28;20048;-48
2020/12/29 03:18:39;;;;;;;56.55;20.50;;;;;;;0.88;94.06;98940.28;3481276;28;20052;-61
2020/12/29 03:20:21;;;;;;;50.28;20.33;;;;;;;0.88;93.71;98942.84;3482822;28;20498;-61
2020/12/29 03:22:03;;;;;;;55.60;21.90;;;;;;;0.90;93.59;98941.22;3479880;28;20064;-61
2020/12/29 03:23:45;;;;;;;48.78;20.25;;;;;;;0.91;93.60;98935.28;3475973;28;20046;-61
2020/12/29 03:25:26;;;;;;;54.58;20.73;;;;;;;0.92;93.90;98920.03;3468904;28;20053;-50
2020/12/29 03:27:07;;;;;;;61.30;23.05;;;;;;;0.92;93.79;98919.16;3480702;28;20052;-50
2020/12/29 03:28:49;;;;;;;60.13;22.77;;;;;;;0.92;93.83;98907.25;3479889;28;20135;-50
2020/12/29 03:30:30;;;;;;;61.38;23.13;;;;;;;0.92;93.79;98911.50;3481620;28;20061;-49
2020/12/29 03:32:12;;;;;;;62.10;23.10;;;;;;;0.92;93.53;98914.91;3469056;28;20081;-49
2020/12/29 03:33:53;;;;;;;44.22;20.45;;;;;;;0.92;93.63;98914.03;3478696;28;20056;-48
2020/12/29 03:35:34;;;;;;;53.05;21.90;;;;;;;0.93;93.55;98913.22;3478142;28;20049;-50
2020/12/29 03:37:16;;;;;;;56.88;22.35;;;;;;;0.93;93.51;98910.66;3469398;28;20414;-50
2020/12/29 03:38:58;;;;;;;61.22;22.55;;;;;;;0.92;93.43;98914.91;3478883;28;20053;-60
2020/12/29 03:40:40;;;;;;;59.47;22.77;;;;;;;0.92;93.53;98908.94;3479579;28;20049;-60
2020/12/29 03:42:21;;;;;;;58.45;23.45;;;;;;;0.91;93.48;98923.41;3481670;28;20049;-59
2020/12/29 03:44:02;;;;;;;56.72;21.15;;;;;;;0.91;93.52;98932.72;3468722;28;20135;-59
2020/12/29 03:45:45;;;;;;;68.88;23.25;;;;;;;0.90;93.54;98947.19;3469181;28;20049;-61
2020/12/29 03:47:27;;;;;;;64.47;24.17;;;;;;;0.89;93.61;98953.06;3480790;28;20056;-60
2020/12/29 03:49:08;;;;;;;59.58;23.85;;;;;;;0.90;93.80;98953.97;3468786;28;20107;-60
2020/12/29 03:50:50;;;;;;;64.63;24.00;;;;;;;0.89;93.84;98942.88;3475043;28;20468;-48
2020/12/29 03:52:31;;;;;;;67.22;24.20;;;;;;;0.89;93.63;98936.91;3479975;28;20429;-60
2020/12/29 03:54:13;;;;;;;73.90;25.30;;;;;;;0.90;94.05;98928.44;3468523;28;20049;-60
2020/12/29 03:55:55;;;;;;;68.45;24.70;;;;;;;0.90;94.00;98928.44;3471032;28;20045;-48
2020/12/29 03:57:36;;;;;;;54.15;22.90;;;;;;;0.89;93.69;98922.44;3471200;28;20052;-61
2020/12/29 03:59:18;;;;;;;60.95;22.90;;;;;;;0.90;93.71;98916.53;3468770;28;20057;-48
2020/12/29 04:00:59;;;;;;;59.13;23.58;;;;;;;0.90;93.72;98913.13;3479375;28;20542;-61
2020/12/29 04:02:40;;;;;;;55.42;22.38;;;;;;;0.91;94.05;98914.84;3482084;28;20394;-61
2020/12/29 04:04:21;;;;;;;52.45;21.83;;;;;;;0.91;93.74;98917.41;3481897;28;20098;-60
2020/12/29 04:06:03;;;;;;;61.22;23.85;;;;;;;0.90;93.78;98919.09;3468301;28;20076;-61
2020/12/29 04:07:45;;;;;;;53.92;20.63;;;;;;;0.90;93.76;98911.44;3467943;28;20506;-47
2020/12/29 04:09:30;;;;;;;52.75;20.13;;;;;;;0.91;94.03;98899.53;3468437;28;20053;-49
2020/12/29 04:11:12;;;;;;;51.83;21.08;;;;;;;0.91;94.03;98892.75;3468984;28;20104;-61
2020/12/29 04:13:05;;;;;;;46.33;20.03;;;;;;;0.91;93.99;98885.09;3479128;28;20500;-61
2020/12/29 04:14:46;;;;;;;53.65;21.75;;;;;;;0.92;93.63;98893.63;3479152;28;20049;-61
2020/12/29 04:16:27;;;;;;;52.35;20.73;;;;;;;0.92;93.72;98909.81;3482332;28;20553;-60
2020/12/29 04:18:09;;;;;;;55.20;23.50;;;;;;;0.92;93.77;98911.50;3479834;28;20053;-60
2020/12/29 04:19:51;;;;;;;49.92;19.70;;;;;;;0.92;93.81;98889.38;3475457;28;20056;-48
2020/12/29 04:21:36;;;;;;;54.72;21.17;;;;;;;0.92;93.80;98888.50;3470986;28;20457;-49
2020/12/29 04:23:18;;;;;;;52.30;21.23;;;;;;;0.93;93.91;98892.78;3468642;28;20060;-47
2020/12/29 04:25:01;;;;;;;49.55;21.48;;;;;;;0.92;93.57;98894.47;3469272;28;20100;-60
2020/12/29 04:26:43;;;;;;;52.88;21.40;;;;;;;0.92;93.76;98896.19;3469262;28;20084;-60
2020/12/29 04:28:25;;;;;;;49.75;20.70;;;;;;;0.92;93.60;98899.59;3468787;28;20057;-60
2020/12/29 04:30:10;;;;;;;57.00;21.52;;;;;;;0.91;93.75;98902.97;3469185;28;20136;-47
2020/12/29 04:31:51;;;;;;;57.83;20.58;;;;;;;0.90;93.65;98908.88;3473194;28;20060;-60
2020/12/29 04:33:33;;;;;;;59.63;23.30;;;;;;;0.88;93.71;98932.63;3481464;28;20060;-60
2020/12/29 04:35:15;;;;;;;55.25;21.92;;;;;;;0.85;93.95;98923.13;3468120;28;20077;-48
2020/12/29 04:36:57;;;;;;;57.42;22.30;;;;;;;0.86;93.74;98913.78;3467569;28;20525;-60
2020/12/29 04:38:38;;;;;;;58.72;21.77;;;;;;;0.86;94.21;98903.56;3469666;28;20096;-60
2020/12/29 04:40:20;;;;;;;50.85;20.35;;;;;;;0.86;94.24;98901.03;3481931;28;20045;-60
2020/12/29 04:42:04;;;;;;;69.65;22.38;;;;;;;0.85;93.86;98905.25;3471769;28;20538;-60
2020/12/29 04:43:45;;;;;;;;;;;;;;;0.84;94.13;98900.09;3479341;28;20418;-61
2020/12/29 04:45:27;;;;;;;56.65;22.13;;;;;;;0.83;94.04;98889.03;3482274;28;19968;-60
2020/12/29 04:47:10;;;;;;;51.47;20.77;;;;;;;0.83;94.14;98885.59;3479263;28;20053;-61
2020/12/29 04:48:52;;;;;;;55.13;21.45;;;;;;;0.84;93.92;98879.69;3475409;28;20068;-60
2020/12/29 04:50:35;;;;;;;52.13;21.13;;;;;;;0.83;94.26;98875.41;3468055;28;20060;-60
2020/12/29 04:52:19;;;;;;;44.17;17.85;;;;;;;0.85;94.03;98882.28;3480692;28;20071;-61
2020/12/29 04:54:06;;;;;;;48.65;20.50;;;;;;;0.84;93.97;98872.00;3472730;28;20465;-61
2020/12/29 04:55:53;;;;;;;62.25;21.75;;;;;;;0.85;94.04;98876.31;3469728;28;20480;-60
2020/12/29 04:57:34;;;;;;;54.88;21.95;;;;;;;0.84;94.26;98877.13;3482185;28;20060;-58
2020/12/29 04:59:17;;;;;;;60.75;23.27;;;;;;;0.84;93.81;98879.69;3472188;28;20426;-61
2020/12/29 05:01:03;;;;;;;58.22;24.38;;;;;;;0.83;93.81;98888.16;3470283;28;20111;-48
2020/12/29 05:02:46;;;;;;;58.15;23.40;;;;;;;0.80;93.93;98887.19;3467999;28;20118;-48
2020/12/29 05:04:28;;;;;;;57.72;22.45;;;;;;;0.80;93.91;98886.34;3467977;28;20049;-52
2020/12/29 05:06:10;;;;;;;66.40;24.05;;;;;;;0.80;94.19;98894.00;3470567;28;20045;-48
2020/12/29 05:07:51;;;;;;;54.88;21.58;;;;;;;0.80;94.22;98905.06;3470137;28;20053;-48
2020/12/29 05:09:34;;;;;;;70.50;24.30;;;;;;;0.79;94.03;98902.50;3470941;28;20046;-61
2020/12/29 05:11:17;;;;;;;60.25;23.40;;;;;;;0.79;94.25;98892.28;3469903;28;20049;-60
2020/12/29 05:12:58;;;;;;;58.70;22.67;;;;;;;0.78;94.23;98891.38;3471740;28;20410;-60
2020/12/29 05:14:40;;;;;;;60.30;22.35;;;;;;;0.78;94.21;98887.97;3484497;28;20052;-61
2020/12/29 05:16:21;;;;;;;59.65;22.30;;;;;;;0.77;93.90;98891.31;3486486;28;20049;-61
2020/12/29 05:18:03;;;;;;;60.45;23.17;;;;;;;0.76;93.94;98895.56;3485533;28;20568;-60
2020/12/29 05:19:44;;;;;;;68.10;23.63;;;;;;;0.76;93.95;98903.22;3489550;28;20504;-61
2020/12/29 05:21:27;;;;;;;56.08;21.65;;;;;;;0.75;94.15;98903.16;3486913;28;20052;-61
2020/12/29 05:23:08;;;;;;;78.35;23.35;;;;;;;0.76;94.07;98905.78;3476882;28;20045;-61
2020/12/29 05:24:51;;;;;;;61.55;21.88;;;;;;;0.77;94.40;98896.41;3469784;28;20091;-60
2020/12/29 05:26:35;;;;;;;70.00;23.45;;;;;;;0.76;94.33;98904.91;3470360;28;20333;-60
2020/12/29 05:28:17;;;;;;;65.80;23.65;;;;;;;0.74;94.04;98902.28;3471071;28;20514;-61
2020/12/29 05:29:59;;;;;;;53.85;20.80;;;;;;;0.75;94.23;98901.50;3469768;28;20049;-60
2020/12/29 05:31:42;;;;;;;63.45;22.88;;;;;;;0.74;94.05;98902.28;3486712;28;20041;-61
2020/12/29 05:33:23;;;;;;;70.28;23.67;;;;;;;0.73;94.14;98909.88;3486578;28;20057;-61
2020/12/29 05:35:12;;;;;;;53.72;20.13;;;;;;;0.74;94.43;98912.50;3484623;28;20045;-60
2020/12/29 05:36:55;;;;;;;68.72;23.70;;;;;;;0.74;94.49;98915.06;3486692;28;20114;-61
2020/12/29 05:38:41;;;;;;;89.15;23.02;;;;;;;0.75;94.40;98908.25;3490370;28;20137;-48
2020/12/29 05:40:28;;;;;;;64.80;22.92;;;;;;;0.72;94.30;98914.13;3487767;28;20501;-47
2020/12/29 05:42:10;;;;;;;71.88;22.92;;;;;;;0.73;94.29;98912.44;3486259;28;20076;-48
2020/12/29 05:44:02;;;;;;;59.33;21.23;;;;;;;0.74;94.56;98907.41;3484478;28;20063;-49
2020/12/29 05:45:44;;;;;;;74.10;21.70;;;;;;;0.73;94.62;98899.66;3471207;28;20540;-47
2020/12/29 05:47:27;;;;;;;64.40;23.48;;;;;;;0.73;94.78;98895.44;3476124;28;20083;-48
2020/12/29 05:49:09;;;;;;;62.25;19.45;;;;;;;0.74;94.67;98896.31;3481756;28;20512;-48
2020/12/29 05:50:50;;;;;;;73.55;22.65;;;;;;;0.75;94.68;98885.28;3483353;28;20045;-60
2020/12/29 05:52:33;;;;;;;69.25;22.67;;;;;;;0.74;94.68;98897.19;3482340;28;20049;-60
2020/12/29 05:54:15;;;;;;;57.65;20.35;;;;;;;0.74;94.40;98893.78;3488568;28;20049;-61
2020/12/29 05:55:58;;;;;;;58.65;20.55;;;;;;;0.75;94.58;98895.50;3491274;28;20044;-61
2020/12/29 05:57:41;;;;;;;65.63;21.52;;;;;;;0.74;94.47;98897.19;3485009;28;20045;-61
2020/12/29 05:59:23;;;;;;;62.03;22.52;;;;;;;0.75;94.54;98893.84;3487303;28;20103;-61
2020/12/29 06:01:05;;;;;;;56.10;22.20;;;;;;;0.75;94.48;98891.28;3486778;28;20040;-61
2020/12/29 06:02:49;;;;;;;62.22;21.35;;;;;;;0.75;94.36;98887.84;3479298;28;20048;-61
2020/12/29 06:04:30;;;;;;;;;;;;;;;0.75;94.49;98881.06;3474808;28;20077;-61
2020/12/29 06:06:13;;;;;;;63.95;22.13;;;;;;;0.75;94.59;98877.63;3469366;28;20389;-61
2020/12/29 06:07:56;;;;;;;78.15;21.33;;;;;;;0.75;94.83;98875.97;3469836;28;20049;-61
2020/12/29 06:09:38;;;;;;;56.57;22.63;;;;;;;0.75;94.44;98875.06;3470110;28;20049;-61
2020/12/29 06:11:22;;;;;;;55.42;19.73;;;;;;;0.76;94.69;98875.13;3470585;28;20309;-61
2020/12/29 06:13:04;;;;;;;;;;;;;;;0.76;94.62;98875.13;3491660;28;20053;-61
2020/12/29 06:14:47;;;;;;;53.10;18.90;;;;;;;0.77;94.47;98889.66;3488363;28;19974;-61
2020/12/29 06:16:32;;;;;;;51.50;19.83;;;;;;;0.78;94.48;98882.88;3486465;28;20055;-61
2020/12/29 06:18:22;;;;;;;79.25;23.17;;;;;;;0.76;94.72;98879.38;3486526;28;20045;-61
2020/12/29 06:20:06;;;;;;;58.80;20.35;;;;;;;0.74;94.35;98889.53;3489689;28;20052;-61
2020/12/29 06:22:04;;;;;;;47.47;18.50;;;;;;;0.74;94.31;98876.75;3486878;28;20520;-61
2020/12/29 06:23:48;;;;;;;80.35;21.05;;;;;;;0.73;94.68;98875.00;3489607;28;20149;-60
2020/12/29 06:25:34;;;;;;;;;;;;;;;0.74;94.42;98879.31;3483330;28;20056;-61
2020/12/29 06:27:15;;;;;;;;;;;;;;;0.74;94.59;98876.75;3482049;28;19975;-61
2020/12/29 06:29:02;;;;;;;48.17;18.38;;;;;;;0.76;94.61;98879.38;3483293;28;20014;-61
2020/12/29 06:30:45;;;;;;;56.20;18.95;;;;;;;0.76;94.83;98870.03;3480441;28;20056;-61
2020/12/29 06:32:34;;;;;;;54.72;19.40;;;;;;;0.78;94.47;98881.16;3483663;28;20493;-61
2020/12/29 06:34:17;;;;;;;42.20;17.23;;;;;;;0.78;94.61;98881.16;3482798;28;20087;-60
2020/12/29 06:36:00;;;;;;;44.97;17.92;;;;;;;0.79;94.54;98887.16;3478765;28;20076;-61
2020/12/29 06:37:47;;;;;;;50.20;19.42;;;;;;;0.80;94.68;98886.34;3470424;28;20061;-61
2020/12/29 06:39:29;;;;;;;42.13;17.55;;;;;;;0.80;94.62;98881.22;3469868;28;20088;-61
2020/12/29 06:41:10;;;;;;;55.88;17.55;;;;;;;0.80;94.77;98884.66;3468475;28;20089;-60
2020/12/29 06:42:52;;;;;;;51.65;16.95;;;;;;;0.81;94.31;98885.53;3475037;28;20037;-61
2020/12/29 06:44:34;;;;;;;49.40;17.35;;;;;;;0.82;94.69;98894.94;3483169;28;20052;-60
2020/12/29 06:46:17;;;;;;;45.30;16.73;;;;;;;0.81;94.55;98908.53;3471096;28;20068;-60
2020/12/29 06:47:58;;;;;;;45.97;17.33;;;;;;;0.80;94.47;98905.06;3470950;28;23617;-61
2020/12/29 06:49:43;;;;;;;44.05;16.85;;;;;;;0.80;94.55;98899.97;3482813;28;20417;-60
2020/12/29 06:51:26;;;;;;;45.65;17.00;;;;;;;0.82;94.48;98891.50;3468544;28;20115;-60
2020/12/29 06:53:07;;;;;;;44.53;16.30;;;;;;;0.82;94.63;98891.50;3476311;28;20439;-60
2020/12/29 06:54:51;;;;;;;39.22;16.50;;;;;;;0.83;94.69;98889.03;3482139;28;20409;-61
2020/12/29 06:56:33;;;;;;;41.65;14.75;;;;;;;0.84;94.46;98898.41;3481995;28;20049;-49
2020/12/29 06:58:29;;;;;;;37.72;15.88;;;;;;;0.84;94.41;98911.16;3474029;28;20108;-48
2020/12/29 07:00:17;;;;;;;40.40;15.75;;;;;;;0.84;94.50;98898.41;3472716;28;20509;-60
2020/12/29 07:01:59;;;;;;;40.70;16.60;;;;;;;0.85;94.77;98902.72;3482807;28;20049;-60
2020/12/29 07:03:41;;;;;;;36.65;15.18;;;;;;;0.85;94.80;98889.09;3470216;28;20058;-60
2020/12/29 07:05:24;;;;;;;46.38;14.70;;;;;;;0.87;94.71;98892.56;3474074;28;20049;-60
2020/12/29 07:07:22;;;;;;;42.97;15.82;;;;;;;0.88;94.60;98879.88;3490409;28;20094;-60
2020/12/29 07:09:25;;;;;;;34.08;14.68;;;;;;;0.89;94.44;98884.13;3469323;28;20080;-60
2020/12/29 07:11:16;;;;;;;35.85;14.55;;;;;;;0.88;94.61;98872.22;3481963;28;20059;-60
2020/12/29 07:13:05;;;;;;;37.30;15.38;;;;;;;0.91;94.26;98879.09;3485892;28;20048;-59
2020/12/29 07:14:52;;;;;;;38.28;14.55;;;;;;;0.87;94.21;98872.16;3487829;28;20053;-60
2020/12/29 07:16:34;;;;;;;28.13;12.75;;;;;;;0.91;94.70;98867.22;3469335;28;20213;-60
2020/12/29 07:18:19;;;;;;;33.78;14.68;;;;;;;0.93;94.48;98869.81;3470714;28;20465;-60
2020/12/29 07:20:12;;;;;;;36.83;15.57;;;;;;;0.95;94.33;98863.09;3474461;28;20413;-59
2020/12/29 07:21:54;;;;;;;32.92;14.02;;;;;;;0.94;94.64;98852.00;3479939;28;20486;-49
2020/12/29 07:23:38;;;;;;;34.63;14.13;;;;;;;0.95;94.23;98873.31;3483132;28;20072;-49
2020/12/29 07:25:21;;;;;;;34.13;14.50;;;;;;;0.97;94.66;98859.78;3472548;28;20068;-51
2020/12/29 07:27:03;;;;;;;28.63;12.35;;;;;;;0.96;94.53;98860.59;3472215;28;20048;-51
2020/12/29 07:28:45;;;;;;;28.35;12.50;;;;;;;0.98;94.32;98866.66;3481849;28;20053;-51
2020/12/29 07:30:28;;;;;;;32.83;14.07;;;;;;;0.99;94.26;98872.63;3480562;28;20560;-53
2020/12/29 07:32:11;;;;;;;34.10;15.87;;;;;;;1.01;94.21;98875.22;3470596;28;20049;-48
2020/12/29 07:33:54;;;;;;;37.63;14.57;;;;;;;1.01;94.24;98881.22;3468825;28;20307;-59
2020/12/29 07:35:37;;;;;;;34.53;14.57;;;;;;;1.01;94.60;98881.22;3488419;28;20076;-59
2020/12/29 07:37:20;;;;;;;30.20;13.05;;;;;;;1.02;94.60;98872.75;3485832;28;20048;-59
2020/12/29 07:39:02;;;;;;;33.30;13.15;;;;;;;1.03;94.41;98873.59;3484806;28;20049;-60
2020/12/29 07:40:44;;;;;;;35.85;14.75;;;;;;;1.03;94.65;98877.03;3488273;28;20531;-59
2020/12/29 07:42:25;;;;;;;36.85;14.02;;;;;;;1.05;94.38;98877.09;3483450;28;20544;-49
2020/12/29 07:44:09;;;;;;;43.53;14.98;;;;;;;1.05;94.36;98872.84;3485103;28;20055;-51
2020/12/29 07:45:50;;;;;;;70.22;16.30;;;;;;;1.05;94.73;98875.41;3486572;28;20422;-48
2020/12/29 07:47:32;;;;;;;42.83;16.02;;;;;;;1.09;94.32;98873.81;3480017;28;20056;-49
2020/12/29 07:49:17;;;;;;;39.72;14.85;;;;;;;1.10;94.34;98868.78;3480417;28;20072;-51
2020/12/29 07:51:01;;;;;;;40.38;14.80;;;;;;;1.10;94.55;98866.22;3490478;28;20053;-54
2020/12/29 07:52:42;;;;;;;33.55;13.80;;;;;;;1.10;94.65;98855.16;3495018;28;20051;-50
2020/12/29 07:54:24;;;;;;;35.08;13.98;;;;;;;1.10;94.36;98845.78;3491509;28;20060;-53
2020/12/29 07:56:07;;;;;;;34.47;14.68;;;;;;;1.11;94.31;98856.91;3482843;28;20052;-50
2020/12/29 07:57:48;;;;;;;39.30;14.55;;;;;;;1.11;94.59;98831.38;3495173;28;20072;-51